createdAt,value
2023-02-20T00:01:25.168Z,9.70
2023-02-20T00:03:51.786Z,11.07
2023-02-20T00:06:18.506Z,10.27
2023-02-20T00:08:45.100Z,10.30
2023-02-20T00:11:12.088Z,10.02
2023-02-20T00:13:45.395Z,9.70
2023-02-20T00:16:12.381Z,9.95
2023-02-20T00:18:39.158Z,10.32
2023-02-20T00:21:06.550Z,10.82
2023-02-20T00:23:33.915Z,10.32
2023-02-20T00:26:00.673Z,10.73
2023-02-20T00:28:27.326Z,10.52
2023-02-20T00:30:55.418Z,10.25
2023-02-20T00:33:22.071Z,9.90
2023-02-20T00:35:49.013Z,10.07
2023-02-20T00:38:15.738Z,9.60
2023-02-20T00:40:42.531Z,9.63
2023-02-20T00:43:09.122Z,9.55
2023-02-20T00:45:35.720Z,10.02
2023-02-20T00:48:04.450Z,9.70
2023-02-20T00:50:31.020Z,9.57
2023-02-20T00:52:57.713Z,9.93
2023-02-20T00:55:24.353Z,9.98
2023-02-20T00:57:51.002Z,9.73
2023-02-20T01:00:21.357Z,10.55
2023-02-20T01:02:48.398Z,9.98
2023-02-20T01:05:16.456Z,10.20
2023-02-20T01:07:43.140Z,10.25
2023-02-20T01:10:10.916Z,10.63
2023-02-20T01:12:38.819Z,10.55
2023-02-20T01:15:07.837Z,10.43
2023-02-20T01:17:34.464Z,10.95
2023-02-20T01:20:01.022Z,12.45
2023-02-20T01:22:28.977Z,11.57
2023-02-20T01:24:55.612Z,12.20
2023-02-20T01:27:22.299Z,12.82
2023-02-20T01:29:48.855Z,12.65
2023-02-20T01:32:15.659Z,14.02
2023-02-20T01:34:43.466Z,13.00
2023-02-20T01:37:13.328Z,14.15
2023-02-20T01:39:41.512Z,14.98
2023-02-20T01:42:13.259Z,13.68
2023-02-20T01:44:39.846Z,14.15
2023-02-20T01:47:07.441Z,14.70
2023-02-20T01:49:39.269Z,13.82
2023-02-20T01:52:10.234Z,13.65
2023-02-20T01:54:40.066Z,13.77
2023-02-20T01:57:13.812Z,13.80
2023-02-20T01:59:41.770Z,13.75
2023-02-20T02:02:08.549Z,13.68
2023-02-20T02:04:36.798Z,13.50
2023-02-20T02:07:04.501Z,15.32
2023-02-20T02:09:39.675Z,14.48
2023-02-20T02:12:09.543Z,15.48
2023-02-20T02:14:36.522Z,13.80
2023-02-20T02:17:34.753Z,14.25
2023-02-20T02:20:34.440Z,14.20
2023-02-20T02:23:54.793Z,14.60
2023-02-20T02:26:53.219Z,14.05
2023-02-20T02:30:00.218Z,14.63
2023-02-20T02:32:50.368Z,14.43
2023-02-20T02:35:37.357Z,14.73
2023-02-20T02:38:17.651Z,14.50
2023-02-20T02:40:51.940Z,15.57
2023-02-20T02:43:29.879Z,13.52
2023-02-20T02:46:06.413Z,13.50
2023-02-20T02:48:37.275Z,14.15
2023-02-20T02:51:09.460Z,13.40
2023-02-20T02:53:37.555Z,13.52
2023-02-20T02:56:04.694Z,14.32
2023-02-20T02:58:31.384Z,14.05
2023-02-20T03:01:01.521Z,13.30
2023-02-20T03:03:33.153Z,13.85
2023-02-20T03:06:06.122Z,11.90
2023-02-20T03:08:41.121Z,12.60
2023-02-20T03:11:13.326Z,12.50
2023-02-20T03:16:11.939Z,12.07
2023-02-20T03:18:41.270Z,11.63
2023-02-20T03:21:13.679Z,11.80
2023-02-20T03:23:44.638Z,11.55
2023-02-20T03:26:16.016Z,11.50
2023-02-20T03:28:51.184Z,11.48
2023-02-20T03:31:21.164Z,12.15
2023-02-20T03:33:53.440Z,11.10
2023-02-20T03:36:26.225Z,11.57
2023-02-20T03:38:58.473Z,11.00
2023-02-20T03:41:27.426Z,10.83
2023-02-20T03:43:56.199Z,10.48
2023-02-20T03:46:24.567Z,11.02
2023-02-20T03:48:55.942Z,10.70
2023-02-20T03:51:23.940Z,10.85
2023-02-20T03:54:01.669Z,10.48
2023-02-20T03:56:32.337Z,10.90
2023-02-20T03:59:09.614Z,10.67
2023-02-20T04:01:37.208Z,10.93
2023-02-20T04:04:06.144Z,11.55
2023-02-20T04:06:35.450Z,11.93
2023-02-20T04:09:06.959Z,12.05
2023-02-20T04:11:39.324Z,12.40
2023-02-20T04:14:08.192Z,12.82
2023-02-20T04:16:39.826Z,12.35
2023-02-20T04:19:06.629Z,14.20
2023-02-20T04:21:38.993Z,13.50
2023-02-20T04:24:11.155Z,14.47
2023-02-20T04:26:38.177Z,14.00
2023-02-20T04:29:06.057Z,14.50
2023-02-20T04:31:33.641Z,15.75
2023-02-20T04:34:00.369Z,14.27
2023-02-20T04:36:27.571Z,14.10
2023-02-20T04:38:57.304Z,13.85
2023-02-20T04:41:29.276Z,14.27
2023-02-20T04:43:55.892Z,14.70
2023-02-20T04:46:23.261Z,15.23
2023-02-20T04:48:49.994Z,15.70
2023-02-20T04:51:16.575Z,14.30
2023-02-20T04:53:43.231Z,13.77
2023-02-20T04:56:09.989Z,15.13
2023-02-20T04:58:45.970Z,15.55
2023-02-20T05:01:18.172Z,15.18
2023-02-20T05:03:44.831Z,14.25
2023-02-20T05:06:11.712Z,15.18
2023-02-20T05:08:38.614Z,14.77
2023-02-20T05:11:05.608Z,14.50
2023-02-20T05:13:32.247Z,13.85
2023-02-20T05:16:00.188Z,14.98
2023-02-20T05:18:28.646Z,14.80
2023-02-20T05:20:55.691Z,15.23
2023-02-20T05:23:22.376Z,13.45
2023-02-20T05:25:49.085Z,14.75
2023-02-20T05:28:15.693Z,13.95
2023-02-20T05:30:42.346Z,13.73
2023-02-20T05:33:10.353Z,14.30
2023-02-20T05:35:36.959Z,13.32
2023-02-20T05:38:03.532Z,13.95
2023-02-20T05:40:30.217Z,14.85
2023-02-20T05:42:56.828Z,13.23
2023-02-20T05:45:23.448Z,13.27
2023-02-20T05:47:49.969Z,13.77
2023-02-20T05:50:18.109Z,12.95
2023-02-20T05:52:44.736Z,13.98
2023-02-20T05:55:11.379Z,13.60
2023-02-20T05:57:37.937Z,12.45
2023-02-20T06:00:05.404Z,13.98
2023-02-20T06:02:38.386Z,13.32
2023-02-20T06:05:05.442Z,14.82
2023-02-20T06:07:33.624Z,13.98
2023-02-20T06:10:00.333Z,13.52
2023-02-20T06:12:26.912Z,12.85
2023-02-20T06:14:53.489Z,13.63
2023-02-20T06:17:20.146Z,14.10
2023-02-20T06:19:46.752Z,13.00
2023-02-20T06:22:13.314Z,13.52
2023-02-20T06:24:44.887Z,12.98
2023-02-20T06:27:11.576Z,13.07
2023-02-20T06:29:38.205Z,13.82
2023-02-20T06:32:05.484Z,12.18
2023-02-20T06:34:32.113Z,12.55
2023-02-20T06:36:59.860Z,12.88
2023-02-20T06:39:26.486Z,13.07
2023-02-20T06:41:54.493Z,12.15
2023-02-20T06:44:21.096Z,12.32
2023-02-20T06:46:48.336Z,12.10
2023-02-20T06:49:15.365Z,12.52
2023-02-20T06:51:41.952Z,11.80
2023-02-20T06:54:11.242Z,11.77
2023-02-20T06:56:38.024Z,12.45
2023-02-20T06:59:07.272Z,12.75
2023-02-20T07:01:39.074Z,12.27
2023-02-20T07:04:06.572Z,11.93
2023-02-20T07:06:33.128Z,12.73
2023-02-20T07:08:59.790Z,12.15
2023-02-20T07:11:26.489Z,12.70
2023-02-20T07:13:53.356Z,12.48
2023-02-20T07:16:21.381Z,13.63
2023-02-20T07:18:48.039Z,12.93
2023-02-20T07:21:14.881Z,12.57
2023-02-20T07:23:41.722Z,12.70
2023-02-20T07:26:17.912Z,12.13
2023-02-20T07:28:44.536Z,12.60
2023-02-20T07:31:11.101Z,13.32
2023-02-20T07:33:39.108Z,12.38
2023-02-20T07:36:06.955Z,13.05
2023-02-20T07:38:34.070Z,13.27
2023-02-20T07:41:00.767Z,12.48
2023-02-20T07:43:27.426Z,13.55
2023-02-20T07:45:54.251Z,12.60
2023-02-20T07:48:21.025Z,13.57
2023-02-20T07:50:48.931Z,13.07
2023-02-20T07:53:17.494Z,13.43
2023-02-20T07:55:44.368Z,12.90
2023-02-20T07:58:11.055Z,11.77
2023-02-20T08:00:38.036Z,12.02
2023-02-20T08:03:04.905Z,12.00
2023-02-20T08:05:40.182Z,12.75
2023-02-20T08:08:15.155Z,12.57
2023-02-20T08:10:41.756Z,12.13
2023-02-20T08:13:08.439Z,12.95
2023-02-20T08:15:35.099Z,12.93
2023-02-20T08:18:02.489Z,11.73
2023-02-20T08:20:30.080Z,12.45
2023-02-20T08:22:56.773Z,11.65
2023-02-20T08:25:24.866Z,12.75
2023-02-20T08:27:51.587Z,11.98
2023-02-20T08:30:23.229Z,11.93
2023-02-20T08:32:50.040Z,12.35
2023-02-20T08:35:16.893Z,11.15
2023-02-20T08:37:44.115Z,11.55
2023-02-20T08:40:11.650Z,11.25
2023-02-20T08:42:39.602Z,11.75
2023-02-20T08:45:08.702Z,12.02
2023-02-20T08:47:35.666Z,11.75
2023-02-20T08:50:02.288Z,11.88
2023-02-20T08:52:28.913Z,11.20
2023-02-20T08:54:55.451Z,11.20
2023-02-20T08:57:22.167Z,10.02
2023-02-20T08:59:50.152Z,10.63
2023-02-20T09:02:18.941Z,10.15
2023-02-20T09:04:45.976Z,9.98
2023-02-20T09:07:13.836Z,9.95
2023-02-20T09:09:41.064Z,9.48
2023-02-20T09:12:08.732Z,10.25
2023-02-20T09:14:35.558Z,10.05
2023-02-20T09:17:04.283Z,11.18
2023-02-20T09:19:31.141Z,11.50
2023-02-20T09:21:57.847Z,11.88
2023-02-20T09:24:24.524Z,10.48
2023-02-20T09:26:51.115Z,10.70
2023-02-20T09:29:17.651Z,11.00
2023-02-20T09:31:44.316Z,10.23
2023-02-20T09:34:12.350Z,11.18
2023-02-20T09:36:39.037Z,11.02
2023-02-20T09:39:05.701Z,11.13
2023-02-20T09:41:46.298Z,10.85
2023-02-20T09:44:18.235Z,11.07
2023-02-20T09:46:45.738Z,11.02
2023-02-20T09:49:18.766Z,9.82
2023-02-20T09:51:51.809Z,10.70
2023-02-20T09:54:27.173Z,10.50
2023-02-20T09:56:57.151Z,10.55
2023-02-20T09:59:26.997Z,10.70
2023-02-20T10:01:56.787Z,9.60
2023-02-20T10:04:30.508Z,10.45
2023-02-20T10:07:04.826Z,9.98
2023-02-20T10:09:31.511Z,10.38
2023-02-20T10:12:10.674Z,10.20
2023-02-20T10:15:16.662Z,10.15
2023-02-20T10:17:53.937Z,10.15
2023-02-20T10:20:30.796Z,8.98
2023-02-20T10:23:06.865Z,9.20
2023-02-20T10:25:38.071Z,9.02
2023-02-20T10:28:08.148Z,9.27
2023-02-20T10:30:41.101Z,8.70
2023-02-20T10:33:20.988Z,8.82
2023-02-20T10:35:53.516Z,9.75
2023-02-20T10:38:24.789Z,9.60
2023-02-20T10:40:57.256Z,9.18
2023-02-20T10:43:32.971Z,8.55
2023-02-20T10:46:08.082Z,10.18
2023-02-20T10:48:35.684Z,8.45
2023-02-20T10:51:09.349Z,9.57
2023-02-20T10:53:44.747Z,9.48
2023-02-20T10:56:16.864Z,9.32
2023-02-20T10:58:49.723Z,8.88
2023-02-20T11:01:21.009Z,9.10
2023-02-20T11:03:56.258Z,8.63
2023-02-20T11:06:29.772Z,9.45
2023-02-20T11:08:56.374Z,9.32
2023-02-20T11:11:28.292Z,8.75
2023-02-20T11:13:55.107Z,10.27
2023-02-20T11:16:26.163Z,9.35
2023-02-20T11:19:12.980Z,9.55
2023-02-20T11:21:45.489Z,9.73
2023-02-20T11:24:28.788Z,8.68
2023-02-20T11:27:03.065Z,10.10
2023-02-20T11:29:35.581Z,9.50
2023-02-20T11:32:21.976Z,9.07
2023-02-20T11:34:48.949Z,9.23
2023-02-20T11:37:17.013Z,9.27
2023-02-20T11:39:47.216Z,8.40
2023-02-20T11:42:17.507Z,9.75
2023-02-20T11:44:44.684Z,9.63
2023-02-20T11:47:20.011Z,9.18
2023-02-20T11:49:47.261Z,8.27
2023-02-20T11:52:20.202Z,8.18
2023-02-20T11:54:47.652Z,8.15
2023-02-20T11:57:23.536Z,8.82
2023-02-20T11:59:51.695Z,8.90
2023-02-20T12:02:24.565Z,9.05
2023-02-20T12:05:05.041Z,10.55
2023-02-20T12:07:36.961Z,9.63
2023-02-20T12:10:16.011Z,9.35
2023-02-20T12:12:42.664Z,9.60
2023-02-20T12:15:14.455Z,10.40
2023-02-20T12:17:52.873Z,9.98
2023-02-20T12:20:22.733Z,10.25
2023-02-20T12:23:00.970Z,9.27
2023-02-20T12:25:37.274Z,9.95
2023-02-20T12:28:12.475Z,9.73
2023-02-20T12:30:55.824Z,10.02
2023-02-20T12:33:44.066Z,10.00
2023-02-20T12:36:24.061Z,10.57
2023-02-20T12:38:58.332Z,10.20
2023-02-20T12:41:36.336Z,9.88
2023-02-20T12:44:21.956Z,10.40
2023-02-20T12:47:01.251Z,11.10
2023-02-20T12:49:48.838Z,10.23
2023-02-20T12:52:36.046Z,10.45
2023-02-20T12:55:19.186Z,9.93
2023-02-20T12:57:52.156Z,10.77
2023-02-20T13:00:28.608Z,9.52
2023-02-20T13:03:00.791Z,10.98
2023-02-20T13:05:30.060Z,11.52
2023-02-20T13:08:01.112Z,10.10
2023-02-20T13:10:32.989Z,9.90
2023-02-20T13:13:00.810Z,9.65
2023-02-20T13:15:37.963Z,10.85
2023-02-20T13:18:12.126Z,10.32
2023-02-20T13:20:44.724Z,10.98
2023-02-20T13:23:29.000Z,10.38
2023-02-20T13:25:57.397Z,10.43
2023-02-20T13:28:33.051Z,10.30
2023-02-20T13:31:08.840Z,10.23
2023-02-20T13:33:36.444Z,9.68
2023-02-20T13:36:04.472Z,10.18
2023-02-20T13:38:31.775Z,10.20
2023-02-20T13:41:06.867Z,10.00
2023-02-20T13:43:33.964Z,9.30
2023-02-20T13:46:16.952Z,9.70
2023-02-20T13:48:44.961Z,10.63
2023-02-20T13:51:35.943Z,9.63
2023-02-20T13:54:18.584Z,9.88
2023-02-20T13:56:51.236Z,8.93
2023-02-20T13:59:20.795Z,9.25
2023-02-20T14:01:58.243Z,10.07
2023-02-20T14:04:25.377Z,10.15
2023-02-20T14:06:58.557Z,9.00
2023-02-20T14:09:27.894Z,9.52
2023-02-20T14:12:04.175Z,9.68
2023-02-20T14:14:34.047Z,9.88
2023-02-20T14:17:08.913Z,9.15
2023-02-20T14:19:41.486Z,9.55
2023-02-20T14:25:18.792Z,9.15
2023-02-20T14:27:49.418Z,9.18
2023-02-20T14:30:19.301Z,8.82
2023-02-20T14:32:47.826Z,8.27
2023-02-20T14:35:31.524Z,9.45
2023-02-20T14:38:11.697Z,8.65
2023-02-20T14:40:40.269Z,8.85
2023-02-20T14:43:15.267Z,7.75
2023-02-20T14:45:43.773Z,8.95
2023-02-20T14:48:22.623Z,8.75
2023-02-20T14:51:02.380Z,8.60
2023-02-20T14:53:29.264Z,8.27
2023-02-20T14:55:55.806Z,8.52
2023-02-20T14:58:23.830Z,7.38
2023-02-20T15:00:50.772Z,7.93
2023-02-20T15:03:30.090Z,8.65
2023-02-20T15:06:02.356Z,8.07
2023-02-20T15:08:32.401Z,7.97
2023-02-20T15:11:07.508Z,7.57
2023-02-20T15:13:38.487Z,6.63
2023-02-20T15:16:07.676Z,7.38
2023-02-20T15:18:36.440Z,8.02
2023-02-20T15:21:04.981Z,7.32
2023-02-20T15:23:33.598Z,7.47
2023-02-20T15:26:28.807Z,7.03
2023-02-20T15:31:56.306Z,7.03
2023-02-20T15:34:25.801Z,6.57
2023-02-20T15:36:52.544Z,7.32
2023-02-20T15:39:20.124Z,6.40
2023-02-20T15:41:47.734Z,7.10
2023-02-20T15:44:14.461Z,6.43
2023-02-20T15:46:41.269Z,6.10
2023-02-20T15:49:15.770Z,6.10
2023-02-20T15:51:43.200Z,6.90
2023-02-20T15:54:16.243Z,6.95
2023-02-20T15:56:42.924Z,6.55
2023-02-20T15:59:11.468Z,6.82
2023-02-20T16:01:38.490Z,6.97
2023-02-20T16:04:06.252Z,7.10
2023-02-20T16:06:34.746Z,7.13
2023-02-20T16:09:01.285Z,6.70
2023-02-20T16:11:38.399Z,7.40
2023-02-20T16:14:05.691Z,6.60
2023-02-20T16:16:34.705Z,7.18
2023-02-20T16:19:01.527Z,6.88
2023-02-20T16:21:28.214Z,6.80
2023-02-20T16:23:56.320Z,7.32
2023-02-20T16:26:27.600Z,7.22
2023-02-20T16:28:57.881Z,7.60
2023-02-20T16:32:04.455Z,6.68
2023-02-20T16:34:33.006Z,7.38
2023-02-20T16:37:00.521Z,7.78
2023-02-20T16:39:28.683Z,7.10
2023-02-20T16:41:56.581Z,7.95
2023-02-20T16:44:31.533Z,7.07
2023-02-20T16:46:58.197Z,7.88
2023-02-20T16:49:24.818Z,7.85
2023-02-20T16:51:51.440Z,7.32
2023-02-20T16:54:18.375Z,7.45
2023-02-20T16:56:46.308Z,7.55
2023-02-20T16:59:12.923Z,8.63
2023-02-20T17:01:39.665Z,7.88
2023-02-20T17:04:06.337Z,7.95
2023-02-20T17:06:32.912Z,7.78
2023-02-20T17:08:59.611Z,9.20
2023-02-20T17:11:26.235Z,8.75
2023-02-20T17:13:54.240Z,8.18
2023-02-20T17:16:30.729Z,8.95
2023-02-20T17:19:00.568Z,8.60
2023-02-20T17:21:27.871Z,8.63
2023-02-20T17:23:54.441Z,8.35
2023-02-20T17:26:21.159Z,9.23
2023-02-20T17:28:48.159Z,9.05
2023-02-20T17:31:16.477Z,8.70
2023-02-20T17:33:43.244Z,8.85
2023-02-20T17:36:10.619Z,8.55
2023-02-20T17:38:42.000Z,9.27
2023-02-20T17:41:08.709Z,8.32
2023-02-20T17:43:36.000Z,9.05
2023-02-20T17:46:02.792Z,9.77
2023-02-20T17:48:30.800Z,9.82
2023-02-20T17:50:57.422Z,9.13
2023-02-20T17:53:23.999Z,9.35
2023-02-20T17:55:50.642Z,9.48
2023-02-20T17:58:17.293Z,9.45
2023-02-20T18:00:43.960Z,9.75
2023-02-20T18:03:10.578Z,10.48
2023-02-20T18:05:38.550Z,10.30
2023-02-20T18:08:05.075Z,10.80
2023-02-20T18:10:31.737Z,10.73
2023-02-20T18:12:58.318Z,11.57
2023-02-20T18:15:24.915Z,11.82
2023-02-20T18:17:51.539Z,11.63
2023-02-20T18:20:18.511Z,11.45
2023-02-20T18:22:46.450Z,11.02
2023-02-20T18:25:13.215Z,11.60
2023-02-20T18:27:39.825Z,11.90
2023-02-20T18:30:07.448Z,12.65
2023-02-20T18:32:34.066Z,11.43
2023-02-20T18:35:00.775Z,12.15
2023-02-20T18:37:27.447Z,11.55
2023-02-20T18:39:55.542Z,12.02
2023-02-20T18:42:22.165Z,12.77
2023-02-20T18:44:49.194Z,12.68
2023-02-20T18:47:15.824Z,12.10
2023-02-20T18:49:42.565Z,13.27
2023-02-20T18:52:09.247Z,13.02
2023-02-20T18:54:35.890Z,12.88
2023-02-20T18:57:04.228Z,12.95
2023-02-20T18:59:30.941Z,12.75
2023-02-20T19:01:59.015Z,13.45
2023-02-20T19:04:25.676Z,13.38
2023-02-20T19:06:52.406Z,12.05
2023-02-20T19:09:21.416Z,12.60
2023-02-20T19:11:48.852Z,11.65
2023-02-20T19:14:16.992Z,12.35
2023-02-20T19:16:47.861Z,12.55
2023-02-20T19:19:18.456Z,12.00
2023-02-20T19:21:48.243Z,12.43
2023-02-20T19:24:15.500Z,12.65
2023-02-20T19:26:42.463Z,12.65
2023-02-20T19:29:09.110Z,12.32
2023-02-20T19:31:37.342Z,13.57
2023-02-20T19:34:04.045Z,11.73
2023-02-20T19:36:30.654Z,13.07
2023-02-20T19:38:57.293Z,12.75
2023-02-20T19:41:23.915Z,12.45
2023-02-20T19:43:50.499Z,12.48
2023-02-20T19:46:18.504Z,12.02
2023-02-20T19:48:46.766Z,12.27
2023-02-20T19:51:14.804Z,12.68
2023-02-20T19:53:41.717Z,12.98
2023-02-20T19:56:09.042Z,12.05
2023-02-20T19:58:35.958Z,13.45
2023-02-20T20:01:02.673Z,13.10
2023-02-20T20:03:29.260Z,14.13
2023-02-20T20:05:57.320Z,13.25
2023-02-20T20:08:23.936Z,12.90
2023-02-20T20:10:50.627Z,13.30
2023-02-20T20:13:17.227Z,13.90
2023-02-20T20:15:43.826Z,13.98
2023-02-20T20:18:11.979Z,14.43
2023-02-20T20:20:38.647Z,13.73
2023-02-20T20:23:07.562Z,14.40
2023-02-20T20:25:34.212Z,15.60
2023-02-20T20:28:00.827Z,15.30
2023-02-20T20:30:29.674Z,15.43
2023-02-20T20:32:56.781Z,14.55
2023-02-20T20:35:26.149Z,15.45
2023-02-20T20:37:53.303Z,17.30
2023-02-20T20:40:22.951Z,15.95
2023-02-20T20:42:50.185Z,16.38
2023-02-20T20:45:18.132Z,15.85
2023-02-20T20:47:45.238Z,17.08
2023-02-20T20:50:14.514Z,17.27
2023-02-20T20:52:41.215Z,16.55
2023-02-20T20:55:09.216Z,15.52
2023-02-20T20:57:37.436Z,16.15
2023-02-20T21:00:05.736Z,17.83
2023-02-20T21:02:32.340Z,16.70
2023-02-20T21:05:09.726Z,17.67
2023-02-20T21:07:37.481Z,18.38
2023-02-20T21:10:04.520Z,16.23
2023-02-20T21:12:31.154Z,17.27
2023-02-20T21:14:59.147Z,18.85
2023-02-20T21:17:25.772Z,18.13
2023-02-20T21:19:52.440Z,17.20
2023-02-20T21:22:19.112Z,17.88
2023-02-20T21:24:45.691Z,17.55
2023-02-20T21:27:12.356Z,17.20
2023-02-20T21:29:39.064Z,18.00
2023-02-20T21:32:07.172Z,17.52
2023-02-20T21:34:33.783Z,18.10
2023-02-20T21:37:00.384Z,17.80
2023-02-20T21:39:27.306Z,19.42
2023-02-20T21:41:54.011Z,18.85
2023-02-20T21:44:23.134Z,18.23
2023-02-20T21:46:49.787Z,19.52
2023-02-20T21:49:18.355Z,17.73
2023-02-20T21:51:45.126Z,18.42
2023-02-20T21:54:12.604Z,19.40
2023-02-20T21:56:39.322Z,20.25
2023-02-20T21:59:06.345Z,19.50
2023-02-20T22:01:36.404Z,19.58
2023-02-20T22:04:03.912Z,19.13
2023-02-20T22:06:31.939Z,20.50
2023-02-20T22:08:58.512Z,18.85
2023-02-20T22:11:25.125Z,18.90
2023-02-20T22:13:51.704Z,20.17
2023-02-20T22:16:19.292Z,19.77
2023-02-20T22:18:45.824Z,19.30
2023-02-20T22:21:17.665Z,20.05
2023-02-20T22:23:45.777Z,18.85
2023-02-20T22:26:15.433Z,20.38
2023-02-20T22:28:42.117Z,20.10
2023-02-20T22:31:08.935Z,19.30
2023-02-20T22:33:35.840Z,20.90
2023-02-20T22:36:02.393Z,20.60
2023-02-20T22:38:28.978Z,20.63
2023-02-20T22:40:57.056Z,20.63
2023-02-20T22:43:23.746Z,21.00
2023-02-20T22:45:50.323Z,20.88
2023-02-20T22:48:17.114Z,21.92
2023-02-20T22:50:43.732Z,21.52
2023-02-20T22:53:10.295Z,21.58
2023-02-20T22:55:36.871Z,21.30
2023-02-20T22:58:04.881Z,22.02
2023-02-20T23:00:31.526Z,21.63
2023-02-20T23:02:58.177Z,20.90
2023-02-20T23:05:24.724Z,21.33
2023-02-20T23:07:51.331Z,21.25
2023-02-20T23:10:18.130Z,22.65
2023-02-20T23:12:44.891Z,22.35
2023-02-20T23:15:12.837Z,21.45
2023-02-20T23:17:41.904Z,22.38
2023-02-20T23:20:10.533Z,23.08
2023-02-20T23:22:37.154Z,23.27
2023-02-20T23:25:04.214Z,23.33
2023-02-20T23:27:30.809Z,22.83
2023-02-20T23:29:57.452Z,22.35
2023-02-20T23:32:25.722Z,22.02
2023-02-20T23:34:52.814Z,21.73
2023-02-20T23:37:19.573Z,20.85
2023-02-20T23:39:46.178Z,22.45
2023-02-20T23:42:12.852Z,23.27
2023-02-20T23:44:39.428Z,22.42
2023-02-20T23:47:06.065Z,21.02
2023-02-20T23:49:34.042Z,23.05
2023-02-20T23:52:05.196Z,23.77
2023-02-20T23:54:34.682Z,23.48
2023-02-20T23:57:01.404Z,23.33
2023-02-20T23:59:28.079Z,24.15
